Airfield :
LOGIN :

Register | Disclaimer

   EN    FR    IT 

 










Legend :    VFR   Marginal VFR   IFR   Intensive IFR   Very Intensive IFR
Visi :
Ceiling :
>= 8 km
>= 3000ft
5 to 8 km
1000 to 3000 ft
1500m to 5 km
500 to 1000 ft
800 to 1500m
200 to 500 ft
< 800m
< 200 ft
Symbols :   Thunderstorms  Fog  Heavy snow  Heavy precipitations  Wind > 20 kt
SIGMETs :     Misc.  Thunderstorms  Icing  Turbulence  Mountain Waves  Volcanic Ashes






- Airport Elevation : 102 ft
- IATA code : EXT


EGTE - Exeter

CURRENT METAR :
  • 280820Z VRB02KT 9999 FEW020CB 06/05 Q1007

EXPIRED METARs :
  • 280750Z 21003KT 9999 FEW020CB 06/06 Q1006
  • 280720Z 20005KT 9999 FEW025 06/06 Q1006

TAF TAF EGTE
Valid from the 28 at 09:00 until the 28 at 18:00 UTC


280801Z 2809/2818 22003KT 9999 SCT025
BECMG 2809/2812 29010KT
TEMPO 2809/2818 7000 SHRA
PROB30
TEMPO 2809/2813 3000 +SHRA BKN014CB



MET'MAP, your aeronautical weather chart ! - Copyright ORBIFLY December 2007 - Disclaimer

ORBIFLY MET'MAP TEAM :

Programming & Development : Alexandra Zaïnal
Original concept : Baudouin d'Aumeries
Technical & hardware support : Manuel Goepfert
Assistance : Marc-Olivier Méhu




SOURCES & CREDITS :

   NOAA